sensor_id;sensor_type;location;lat;lon;timestamp;P1;durP1;ratioP1;P2;durP2;ratioP2
30818;SDS011;17546;42.674;23.284;2023-04-21T00:57:19;18.45;;;8.70;;
30818;SDS011;17546;42.674;23.284;2023-04-21T00:59:45;21.63;;;8.57;;
30818;SDS011;17546;42.674;23.284;2023-04-21T01:02:10;18.27;;;7.82;;
30818;SDS011;17546;42.674;23.284;2023-04-21T01:04:38;17.33;;;7.78;;
30818;SDS011;17546;42.674;23.284;2023-04-21T01:07:04;15.73;;;7.50;;
30818;SDS011;17546;42.674;23.284;2023-04-21T01:09:31;15.57;;;8.05;;
30818;SDS011;17546;42.674;23.284;2023-04-21T01:12:01;15.07;;;8.30;;
30818;SDS011;17546;42.674;23.284;2023-04-21T01:14:27;22.77;;;8.23;;
30818;SDS011;17546;42.674;23.284;2023-04-21T01:16:53;18.63;;;7.65;;
30818;SDS011;17546;42.674;23.284;2023-04-21T01:19:18;18.70;;;7.60;;
30818;SDS011;17546;42.674;23.284;2023-04-21T01:21:44;13.80;;;7.57;;
30818;SDS011;17546;42.674;23.284;2023-04-21T01:24:10;13.23;;;7.32;;
30818;SDS011;17546;42.674;23.284;2023-04-21T01:26:37;12.85;;;7.32;;
30818;SDS011;17546;42.674;23.284;2023-04-21T01:29:02;13.52;;;6.90;;
30818;SDS011;17546;42.674;23.284;2023-04-21T01:31:28;12.45;;;7.40;;
30818;SDS011;17546;42.674;23.284;2023-04-21T01:33:53;21.33;;;7.88;;
30818;SDS011;17546;42.674;23.284;2023-04-21T01:36:19;11.10;;;7.15;;
30818;SDS011;17546;42.674;23.284;2023-04-21T01:38:44;17.98;;;7.55;;
30818;SDS011;17546;42.674;23.284;2023-04-21T01:41:10;16.38;;;6.97;;
30818;SDS011;17546;42.674;23.284;2023-04-21T01:43:36;10.35;;;6.78;;
30818;SDS011;17546;42.674;23.284;2023-04-21T01:46:02;15.88;;;7.82;;
30818;SDS011;17546;42.674;23.284;2023-04-21T01:48:29;12.13;;;7.00;;
30818;SDS011;17546;42.674;23.284;2023-04-21T01:50:54;13.15;;;8.07;;
30818;SDS011;17546;42.674;23.284;2023-04-21T01:53:22;15.45;;;8.27;;
30818;SDS011;17546;42.674;23.284;2023-04-21T01:55:47;15.48;;;7.63;;
30818;SDS011;17546;42.674;23.284;2023-04-21T01:58:13;12.02;;;7.25;;
30818;SDS011;17546;42.674;23.284;2023-04-21T02:00:38;16.90;;;7.82;;
30818;SDS011;17546;42.674;23.284;2023-04-21T02:03:04;18.13;;;7.70;;
30818;SDS011;17546;42.674;23.284;2023-04-21T02:05:30;12.63;;;7.20;;
30818;SDS011;17546;42.674;23.284;2023-04-21T02:07:55;15.90;;;7.65;;
30818;SDS011;17546;42.674;23.284;2023-04-21T02:10:21;15.20;;;7.13;;
30818;SDS011;17546;42.674;23.284;2023-04-21T02:12:46;14.25;;;7.63;;
30818;SDS011;17546;42.674;23.284;2023-04-21T02:15:11;13.02;;;7.65;;
30818;SDS011;17546;42.674;23.284;2023-04-21T02:17:37;12.27;;;7.68;;
30818;SDS011;17546;42.674;23.284;2023-04-21T02:20:03;13.73;;;7.28;;
30818;SDS011;17546;42.674;23.284;2023-04-21T02:22:28;12.77;;;8.02;;
30818;SDS011;17546;42.674;23.284;2023-04-21T02:24:54;15.00;;;7.95;;
30818;SDS011;17546;42.674;23.284;2023-04-21T02:27:19;17.98;;;8.27;;
30818;SDS011;17546;42.674;23.284;2023-04-21T02:29:45;12.95;;;7.55;;
30818;SDS011;17546;42.674;23.284;2023-04-21T02:32:10;12.82;;;7.95;;
30818;SDS011;17546;42.674;23.284;2023-04-21T02:34:36;18.52;;;8.40;;
30818;SDS011;17546;42.674;23.284;2023-04-21T02:37:01;15.95;;;7.53;;
30818;SDS011;17546;42.674;23.284;2023-04-21T02:39:26;17.00;;;7.88;;
30818;SDS011;17546;42.674;23.284;2023-04-21T02:41:52;22.30;;;8.48;;
30818;SDS011;17546;42.674;23.284;2023-04-21T02:44:17;18.33;;;7.93;;
30818;SDS011;17546;42.674;23.284;2023-04-21T02:46:43;17.27;;;8.18;;
30818;SDS011;17546;42.674;23.284;2023-04-21T02:49:08;12.30;;;7.75;;
30818;SDS011;17546;42.674;23.284;2023-04-21T02:51:34;17.50;;;8.27;;
30818;SDS011;17546;42.674;23.284;2023-04-21T02:54:00;17.95;;;8.10;;
30818;SDS011;17546;42.674;23.284;2023-04-21T02:56:25;17.13;;;7.78;;
30818;SDS011;17546;42.674;23.284;2023-04-21T02:58:50;12.43;;;8.10;;
30818;SDS011;17546;42.674;23.284;2023-04-21T03:01:16;18.15;;;7.93;;
30818;SDS011;17546;42.674;23.284;2023-04-21T03:03:41;16.48;;;8.13;;
30818;SDS011;17546;42.674;23.284;2023-04-21T03:06:07;14.93;;;8.18;;
30818;SDS011;17546;42.674;23.284;2023-04-21T03:08:32;18.17;;;8.10;;
30818;SDS011;17546;42.674;23.284;2023-04-21T03:10:58;17.38;;;8.25;;
30818;SDS011;17546;42.674;23.284;2023-04-21T03:13:28;15.75;;;8.15;;
30818;SDS011;17546;42.674;23.284;2023-04-21T03:15:53;12.45;;;8.07;;
30818;SDS011;17546;42.674;23.284;2023-04-21T03:18:19;13.57;;;8.43;;
30818;SDS011;17546;42.674;23.284;2023-04-21T03:20:45;12.55;;;8.23;;
30818;SDS011;17546;42.674;23.284;2023-04-21T03:23:10;14.43;;;7.65;;
30818;SDS011;17546;42.674;23.284;2023-04-21T03:25:37;16.50;;;8.32;;
30818;SDS011;17546;42.674;23.284;2023-04-21T03:28:02;13.93;;;7.85;;
30818;SDS011;17546;42.674;23.284;2023-04-21T03:30:29;11.15;;;7.72;;
30818;SDS011;17546;42.674;23.284;2023-04-21T03:32:55;20.35;;;7.70;;
30818;SDS011;17546;42.674;23.284;2023-04-21T03:35:20;14.43;;;8.00;;
30818;SDS011;17546;42.674;23.284;2023-04-21T03:37:46;15.05;;;7.90;;
30818;SDS011;17546;42.674;23.284;2023-04-21T03:40:13;13.43;;;7.90;;
30818;SDS011;17546;42.674;23.284;2023-04-21T03:42:39;18.75;;;9.65;;
30818;SDS011;17546;42.674;23.284;2023-04-21T03:45:05;13.23;;;8.45;;
30818;SDS011;17546;42.674;23.284;2023-04-21T03:47:32;15.10;;;8.00;;
30818;SDS011;17546;42.674;23.284;2023-04-21T03:49:57;16.30;;;7.88;;
30818;SDS011;17546;42.674;23.284;2023-04-21T03:52:23;17.50;;;8.15;;
30818;SDS011;17546;42.674;23.284;2023-04-21T03:54:49;13.40;;;8.13;;
30818;SDS011;17546;42.674;23.284;2023-04-21T03:57:14;15.02;;;8.65;;
30818;SDS011;17546;42.674;23.284;2023-04-21T03:59:40;16.80;;;8.45;;
30818;SDS011;17546;42.674;23.284;2023-04-21T04:02:06;14.50;;;8.05;;
30818;SDS011;17546;42.674;23.284;2023-04-21T04:04:31;14.43;;;8.35;;
30818;SDS011;17546;42.674;23.284;2023-04-21T04:06:57;23.13;;;8.93;;
30818;SDS011;17546;42.674;23.284;2023-04-21T04:09:22;15.30;;;8.75;;
30818;SDS011;17546;42.674;23.284;2023-04-21T04:11:48;33.50;;;8.27;;
30818;SDS011;17546;42.674;23.284;2023-04-21T04:14:13;14.85;;;8.60;;
30818;SDS011;17546;42.674;23.284;2023-04-21T04:16:39;20.80;;;9.25;;
30818;SDS011;17546;42.674;23.284;2023-04-21T04:19:05;17.40;;;8.65;;
30818;SDS011;17546;42.674;23.284;2023-04-21T04:21:30;15.18;;;9.18;;
30818;SDS011;17546;42.674;23.284;2023-04-21T04:23:56;17.35;;;9.27;;
30818;SDS011;17546;42.674;23.284;2023-04-21T04:26:23;20.58;;;8.70;;
30818;SDS011;17546;42.674;23.284;2023-04-21T04:28:49;16.42;;;8.82;;
30818;SDS011;17546;42.674;23.284;2023-04-21T04:31:16;13.30;;;8.60;;
30818;SDS011;17546;42.674;23.284;2023-04-21T04:33:42;13.02;;;8.50;;
30818;SDS011;17546;42.674;23.284;2023-04-21T04:36:09;14.65;;;8.73;;
30818;SDS011;17546;42.674;23.284;2023-04-21T04:38:38;16.38;;;8.43;;
30818;SDS011;17546;42.674;23.284;2023-04-21T04:41:03;20.25;;;8.70;;
30818;SDS011;17546;42.674;23.284;2023-04-21T04:43:30;19.15;;;9.05;;
30818;SDS011;17546;42.674;23.284;2023-04-21T04:46:00;14.68;;;9.30;;
30818;SDS011;17546;42.674;23.284;2023-04-21T04:48:26;21.17;;;9.25;;
30818;SDS011;17546;42.674;23.284;2023-04-21T04:50:52;18.35;;;9.38;;
30818;SDS011;17546;42.674;23.284;2023-04-21T04:53:17;15.68;;;9.18;;
30818;SDS011;17546;42.674;23.284;2023-04-21T04:55:43;15.88;;;9.00;;
30818;SDS011;17546;42.674;23.284;2023-04-21T04:58:08;15.90;;;8.52;;
30818;SDS011;17546;42.674;23.284;2023-04-21T05:00:33;15.10;;;8.20;;
30818;SDS011;17546;42.674;23.284;2023-04-21T05:03:01;14.25;;;9.00;;
30818;SDS011;17546;42.674;23.284;2023-04-21T05:05:26;22.10;;;9.10;;
30818;SDS011;17546;42.674;23.284;2023-04-21T05:07:51;21.52;;;9.23;;
30818;SDS011;17546;42.674;23.284;2023-04-21T05:10:17;20.63;;;8.63;;
30818;SDS011;17546;42.674;23.284;2023-04-21T05:12:42;14.13;;;8.80;;
30818;SDS011;17546;42.674;23.284;2023-04-21T05:15:08;11.45;;;8.57;;
30818;SDS011;17546;42.674;23.284;2023-04-21T05:17:43;18.38;;;8.52;;
30818;SDS011;17546;42.674;23.284;2023-04-21T05:20:08;15.55;;;8.88;;
30818;SDS011;17546;42.674;23.284;2023-04-21T05:22:37;12.63;;;8.05;;
30818;SDS011;17546;42.674;23.284;2023-04-21T05:25:09;19.38;;;8.80;;
30818;SDS011;17546;42.674;23.284;2023-04-21T05:27:41;13.32;;;7.60;;
30818;SDS011;17546;42.674;23.284;2023-04-21T05:30:07;15.63;;;9.02;;
30818;SDS011;17546;42.674;23.284;2023-04-21T05:32:33;19.63;;;8.60;;
30818;SDS011;17546;42.674;23.284;2023-04-21T05:34:58;20.30;;;9.23;;
30818;SDS011;17546;42.674;23.284;2023-04-21T05:37:24;16.25;;;8.95;;
30818;SDS011;17546;42.674;23.284;2023-04-21T05:39:50;19.05;;;9.45;;
30818;SDS011;17546;42.674;23.284;2023-04-21T05:42:16;17.83;;;8.65;;
30818;SDS011;17546;42.674;23.284;2023-04-21T05:44:42;18.33;;;9.60;;
30818;SDS011;17546;42.674;23.284;2023-04-21T05:47:08;25.40;;;8.15;;
30818;SDS011;17546;42.674;23.284;2023-04-21T05:49:33;19.35;;;8.48;;
30818;SDS011;17546;42.674;23.284;2023-04-21T05:51:59;15.95;;;8.57;;
30818;SDS011;17546;42.674;23.284;2023-04-21T05:54:24;16.42;;;9.20;;
30818;SDS011;17546;42.674;23.284;2023-04-21T05:56:49;14.52;;;8.55;;
30818;SDS011;17546;42.674;23.284;2023-04-21T05:59:15;21.75;;;8.50;;
30818;SDS011;17546;42.674;23.284;2023-04-21T06:01:41;16.75;;;8.40;;
30818;SDS011;17546;42.674;23.284;2023-04-21T06:04:07;15.05;;;9.00;;
30818;SDS011;17546;42.674;23.284;2023-04-21T06:06:32;17.83;;;8.30;;
30818;SDS011;17546;42.674;23.284;2023-04-21T06:08:58;15.98;;;9.35;;
30818;SDS011;17546;42.674;23.284;2023-04-21T06:11:23;15.88;;;8.90;;
30818;SDS011;17546;42.674;23.284;2023-04-21T06:13:49;16.88;;;9.10;;
30818;SDS011;17546;42.674;23.284;2023-04-21T06:16:14;13.95;;;8.15;;
30818;SDS011;17546;42.674;23.284;2023-04-21T06:18:40;17.33;;;8.77;;
30818;SDS011;17546;42.674;23.284;2023-04-21T06:21:06;15.00;;;8.93;;
30818;SDS011;17546;42.674;23.284;2023-04-21T06:23:31;13.70;;;8.70;;
30818;SDS011;17546;42.674;23.284;2023-04-21T06:26:06;19.33;;;8.55;;
30818;SDS011;17546;42.674;23.284;2023-04-21T06:28:34;18.00;;;8.90;;
30818;SDS011;17546;42.674;23.284;2023-04-21T06:31:00;13.88;;;8.25;;
30818;SDS011;17546;42.674;23.284;2023-04-21T06:33:27;19.83;;;8.98;;
30818;SDS011;17546;42.674;23.284;2023-04-21T06:35:53;12.75;;;8.68;;
30818;SDS011;17546;42.674;23.284;2023-04-21T06:38:18;15.63;;;8.50;;
30818;SDS011;17546;42.674;23.284;2023-04-21T06:40:44;15.32;;;8.80;;
30818;SDS011;17546;42.674;23.284;2023-04-21T06:43:10;16.73;;;8.60;;
30818;SDS011;17546;42.674;23.284;2023-04-21T06:45:35;11.40;;;7.93;;
30818;SDS011;17546;42.674;23.284;2023-04-21T06:48:01;17.33;;;8.75;;
30818;SDS011;17546;42.674;23.284;2023-04-21T06:50:26;14.88;;;8.20;;
30818;SDS011;17546;42.674;23.284;2023-04-21T06:52:51;17.38;;;8.27;;
30818;SDS011;17546;42.674;23.284;2023-04-21T06:55:17;19.15;;;8.07;;
30818;SDS011;17546;42.674;23.284;2023-04-21T06:57:42;16.10;;;8.20;;
30818;SDS011;17546;42.674;23.284;2023-04-21T07:00:08;16.25;;;8.05;;
30818;SDS011;17546;42.674;23.284;2023-04-21T07:02:34;12.90;;;8.05;;
30818;SDS011;17546;42.674;23.284;2023-04-21T07:04:59;15.90;;;8.70;;
30818;SDS011;17546;42.674;23.284;2023-04-21T07:07:25;22.55;;;8.57;;
30818;SDS011;17546;42.674;23.284;2023-04-21T07:09:50;15.13;;;8.32;;
30818;SDS011;17546;42.674;23.284;2023-04-21T07:12:16;13.88;;;8.30;;
30818;SDS011;17546;42.674;23.284;2023-04-21T07:14:41;15.93;;;8.05;;
30818;SDS011;17546;42.674;23.284;2023-04-21T07:17:06;12.93;;;7.25;;
30818;SDS011;17546;42.674;23.284;2023-04-21T07:19:32;18.65;;;8.02;;
30818;SDS011;17546;42.674;23.284;2023-04-21T07:21:57;15.05;;;7.88;;
30818;SDS011;17546;42.674;23.284;2023-04-21T07:24:23;13.70;;;8.05;;
30818;SDS011;17546;42.674;23.284;2023-04-21T07:26:48;16.27;;;8.07;;
30818;SDS011;17546;42.674;23.284;2023-04-21T07:29:14;16.80;;;7.22;;
30818;SDS011;17546;42.674;23.284;2023-04-21T07:31:39;9.73;;;6.43;;
30818;SDS011;17546;42.674;23.284;2023-04-21T07:34:04;14.50;;;7.25;;
30818;SDS011;17546;42.674;23.284;2023-04-21T07:36:30;10.13;;;6.75;;
30818;SDS011;17546;42.674;23.284;2023-04-21T07:38:55;12.70;;;7.10;;
30818;SDS011;17546;42.674;23.284;2023-04-21T07:41:21;11.82;;;6.57;;
30818;SDS011;17546;42.674;23.284;2023-04-21T07:43:46;15.88;;;6.55;;
30818;SDS011;17546;42.674;23.284;2023-04-21T07:46:12;17.52;;;6.97;;
30818;SDS011;17546;42.674;23.284;2023-04-21T07:48:38;15.43;;;6.80;;
30818;SDS011;17546;42.674;23.284;2023-04-21T07:51:04;14.90;;;6.25;;
30818;SDS011;17546;42.674;23.284;2023-04-21T07:53:30;14.05;;;7.00;;
30818;SDS011;17546;42.674;23.284;2023-04-21T07:55:55;12.63;;;7.10;;
30818;SDS011;17546;42.674;23.284;2023-04-21T07:58:21;16.10;;;7.13;;
30818;SDS011;17546;42.674;23.284;2023-04-21T08:00:46;18.95;;;6.88;;
30818;SDS011;17546;42.674;23.284;2023-04-21T08:03:12;11.57;;;6.88;;
30818;SDS011;17546;42.674;23.284;2023-04-21T08:05:38;13.23;;;6.68;;
30818;SDS011;17546;42.674;23.284;2023-04-21T08:08:03;15.88;;;6.32;;
30818;SDS011;17546;42.674;23.284;2023-04-21T08:10:29;15.00;;;6.68;;
30818;SDS011;17546;42.674;23.284;2023-04-21T08:12:55;11.38;;;6.18;;
30818;SDS011;17546;42.674;23.284;2023-04-21T08:15:20;10.27;;;5.97;;
30818;SDS011;17546;42.674;23.284;2023-04-21T08:17:46;13.80;;;6.85;;
30818;SDS011;17546;42.674;23.284;2023-04-21T08:20:11;15.63;;;6.40;;
30818;SDS011;17546;42.674;23.284;2023-04-21T08:22:37;9.50;;;5.93;;
30818;SDS011;17546;42.674;23.284;2023-04-21T08:25:03;12.93;;;6.30;;
30818;SDS011;17546;42.674;23.284;2023-04-21T08:27:29;10.52;;;5.80;;
30818;SDS011;17546;42.674;23.284;2023-04-21T08:29:55;14.98;;;6.05;;
30818;SDS011;17546;42.674;23.284;2023-04-21T08:32:20;14.90;;;6.47;;
30818;SDS011;17546;42.674;23.284;2023-04-21T08:34:50;11.00;;;5.90;;
30818;SDS011;17546;42.674;23.284;2023-04-21T08:37:17;10.88;;;5.97;;
30818;SDS011;17546;42.674;23.284;2023-04-21T08:39:43;14.27;;;6.68;;
30818;SDS011;17546;42.674;23.284;2023-04-21T08:42:09;15.50;;;6.97;;
30818;SDS011;17546;42.674;23.284;2023-04-21T08:44:36;17.38;;;6.57;;
30818;SDS011;17546;42.674;23.284;2023-04-21T08:47:01;15.95;;;6.40;;
30818;SDS011;17546;42.674;23.284;2023-04-21T08:49:28;10.82;;;5.78;;
30818;SDS011;17546;42.674;23.284;2023-04-21T08:51:55;14.75;;;6.13;;
30818;SDS011;17546;42.674;23.284;2023-04-21T08:54:20;10.63;;;6.10;;
30818;SDS011;17546;42.674;23.284;2023-04-21T08:56:49;9.65;;;6.40;;
30818;SDS011;17546;42.674;23.284;2023-04-21T08:59:14;13.07;;;6.07;;
30818;SDS011;17546;42.674;23.284;2023-04-21T09:04:30;14.75;;;5.97;;
30818;SDS011;17546;42.674;23.284;2023-04-21T09:06:55;12.50;;;5.40;;
30818;SDS011;17546;42.674;23.284;2023-04-21T09:09:20;12.65;;;5.72;;
30818;SDS011;17546;42.674;23.284;2023-04-21T09:11:53;13.60;;;5.15;;
30818;SDS011;17546;42.674;23.284;2023-04-21T09:14:24;9.35;;;5.40;;
30818;SDS011;17546;42.674;23.284;2023-04-21T09:16:59;10.47;;;5.60;;
30818;SDS011;17546;42.674;23.284;2023-04-21T09:19:26;15.35;;;6.00;;
30818;SDS011;17546;42.674;23.284;2023-04-21T09:21:52;9.68;;;5.18;;
30818;SDS011;17546;42.674;23.284;2023-04-21T09:24:18;10.90;;;4.95;;
30818;SDS011;17546;42.674;23.284;2023-04-21T09:26:48;10.40;;;4.88;;
30818;SDS011;17546;42.674;23.284;2023-04-21T09:29:14;12.10;;;4.70;;
30818;SDS011;17546;42.674;23.284;2023-04-21T09:31:40;8.15;;;4.78;;
30818;SDS011;17546;42.674;23.284;2023-04-21T09:36:46;8.88;;;4.70;;
30818;SDS011;17546;42.674;23.284;2023-04-21T09:39:12;7.20;;;4.25;;
30818;SDS011;17546;42.674;23.284;2023-04-21T09:41:37;12.80;;;4.80;;
30818;SDS011;17546;42.674;23.284;2023-04-21T09:44:03;11.55;;;4.70;;
30818;SDS011;17546;42.674;23.284;2023-04-21T09:46:31;8.10;;;4.72;;
30818;SDS011;17546;42.674;23.284;2023-04-21T09:48:59;7.68;;;4.63;;
30818;SDS011;17546;42.674;23.284;2023-04-21T09:51:25;14.23;;;5.38;;
30818;SDS011;17546;42.674;23.284;2023-04-21T09:53:55;12.38;;;4.15;;
30818;SDS011;17546;42.674;23.284;2023-04-21T09:56:24;12.00;;;4.80;;
30818;SDS011;17546;42.674;23.284;2023-04-21T09:58:53;10.85;;;4.40;;
30818;SDS011;17546;42.674;23.284;2023-04-21T10:01:26;8.93;;;4.47;;
30818;SDS011;17546;42.674;23.284;2023-04-21T10:03:53;9.63;;;4.63;;
30818;SDS011;17546;42.674;23.284;2023-04-21T10:06:19;8.45;;;3.85;;
30818;SDS011;17546;42.674;23.284;2023-04-21T10:08:44;7.55;;;3.90;;
30818;SDS011;17546;42.674;23.284;2023-04-21T10:11:11;11.52;;;4.80;;
30818;SDS011;17546;42.674;23.284;2023-04-21T10:13:37;6.00;;;4.20;;
30818;SDS011;17546;42.674;23.284;2023-04-21T10:18:33;11.65;;;4.40;;
30818;SDS011;17546;42.674;23.284;2023-04-21T10:23:36;12.00;;;4.60;;
30818;SDS011;17546;42.674;23.284;2023-04-21T10:26:44;8.80;;;4.63;;
30818;SDS011;17546;42.674;23.284;2023-04-21T10:28:59;13.82;;;4.50;;
30818;SDS011;17546;42.674;23.284;2023-04-21T10:31:34;10.90;;;4.80;;
30818;SDS011;17546;42.674;23.284;2023-04-21T10:39:10;9.23;;;4.88;;
30818;SDS011;17546;42.674;23.284;2023-04-21T10:41:37;9.05;;;4.35;;
30818;SDS011;17546;42.674;23.284;2023-04-21T10:46:36;14.48;;;4.95;;
30818;SDS011;17546;42.674;23.284;2023-04-21T10:57:07;10.50;;;5.10;;
30818;SDS011;17546;42.674;23.284;2023-04-21T10:59:35;12.45;;;4.85;;
30818;SDS011;17546;42.674;23.284;2023-04-21T11:02:01;12.85;;;4.82;;
30818;SDS011;17546;42.674;23.284;2023-04-21T11:04:27;9.63;;;4.85;;
30818;SDS011;17546;42.674;23.284;2023-04-21T11:09:34;9.43;;;4.68;;
30818;SDS011;17546;42.674;23.284;2023-04-21T11:12:01;13.15;;;4.40;;
30818;SDS011;17546;42.674;23.284;2023-04-21T11:14:31;11.48;;;4.15;;
30818;SDS011;17546;42.674;23.284;2023-04-21T11:16:59;7.78;;;4.00;;
30818;SDS011;17546;42.674;23.284;2023-04-21T11:19:25;18.33;;;4.90;;
30818;SDS011;17546;42.674;23.284;2023-04-21T11:21:51;15.52;;;4.63;;
30818;SDS011;17546;42.674;23.284;2023-04-21T11:24:19;10.38;;;4.22;;
30818;SDS011;17546;42.674;23.284;2023-04-21T11:26:45;8.25;;;4.20;;
30818;SDS011;17546;42.674;23.284;2023-04-21T11:29:10;11.35;;;4.32;;
30818;SDS011;17546;42.674;23.284;2023-04-21T11:31:37;8.77;;;4.13;;
30818;SDS011;17546;42.674;23.284;2023-04-21T11:34:04;7.97;;;3.97;;
30818;SDS011;17546;42.674;23.284;2023-04-21T11:39:14;9.30;;;4.43;;
30818;SDS011;17546;42.674;23.284;2023-04-21T11:41:45;18.92;;;4.53;;
30818;SDS011;17546;42.674;23.284;2023-04-21T11:44:55;7.47;;;4.30;;
30818;SDS011;17546;42.674;23.284;2023-04-21T11:47:31;10.23;;;4.53;;
30818;SDS011;17546;42.674;23.284;2023-04-21T11:53:28;7.03;;;3.35;;
30818;SDS011;17546;42.674;23.284;2023-04-21T11:55:54;6.93;;;3.50;;
30818;SDS011;17546;42.674;23.284;2023-04-21T11:58:28;9.73;;;3.90;;
30818;SDS011;17546;42.674;23.284;2023-04-21T12:01:46;11.45;;;3.97;;
30818;SDS011;17546;42.674;23.284;2023-04-21T12:04:22;8.05;;;3.50;;
30818;SDS011;17546;42.674;23.284;2023-04-21T12:06:58;8.63;;;3.80;;
30818;SDS011;17546;42.674;23.284;2023-04-21T12:09:25;14.82;;;3.53;;
30818;SDS011;17546;42.674;23.284;2023-04-21T12:11:52;8.57;;;3.45;;
30818;SDS011;17546;42.674;23.284;2023-04-21T12:14:19;5.78;;;3.50;;
30818;SDS011;17546;42.674;23.284;2023-04-21T12:16:47;12.75;;;3.60;;
30818;SDS011;17546;42.674;23.284;2023-04-21T12:19:23;9.20;;;3.95;;
30818;SDS011;17546;42.674;23.284;2023-04-21T12:21:58;10.80;;;4.03;;
30818;SDS011;17546;42.674;23.284;2023-04-21T12:24:24;12.60;;;4.18;;
30818;SDS011;17546;42.674;23.284;2023-04-21T12:26:50;8.25;;;4.55;;
30818;SDS011;17546;42.674;23.284;2023-04-21T12:29:15;14.23;;;4.43;;
30818;SDS011;17546;42.674;23.284;2023-04-21T12:31:41;9.95;;;4.63;;
30818;SDS011;17546;42.674;23.284;2023-04-21T12:34:06;13.27;;;4.25;;
30818;SDS011;17546;42.674;23.284;2023-04-21T12:36:32;9.13;;;4.50;;
30818;SDS011;17546;42.674;23.284;2023-04-21T12:38:57;9.60;;;4.15;;
30818;SDS011;17546;42.674;23.284;2023-04-21T12:41:22;10.95;;;4.30;;
30818;SDS011;17546;42.674;23.284;2023-04-21T12:43:48;11.23;;;4.32;;
30818;SDS011;17546;42.674;23.284;2023-04-21T12:46:13;9.23;;;4.53;;
30818;SDS011;17546;42.674;23.284;2023-04-21T12:48:39;12.85;;;4.45;;
30818;SDS011;17546;42.674;23.284;2023-04-21T12:51:04;13.15;;;4.00;;
30818;SDS011;17546;42.674;23.284;2023-04-21T12:53:30;9.75;;;4.65;;
30818;SDS011;17546;42.674;23.284;2023-04-21T12:55:56;10.85;;;4.65;;
30818;SDS011;17546;42.674;23.284;2023-04-21T12:58:21;7.20;;;3.95;;
30818;SDS011;17546;42.674;23.284;2023-04-21T13:00:47;9.45;;;4.32;;
30818;SDS011;17546;42.674;23.284;2023-04-21T13:03:12;11.88;;;4.93;;
30818;SDS011;17546;42.674;23.284;2023-04-21T13:05:37;15.65;;;4.82;;
30818;SDS011;17546;42.674;23.284;2023-04-21T13:08:03;8.90;;;4.50;;
30818;SDS011;17546;42.674;23.284;2023-04-21T13:10:28;9.55;;;4.63;;
30818;SDS011;17546;42.674;23.284;2023-04-21T13:12:54;12.52;;;4.40;;
30818;SDS011;17546;42.674;23.284;2023-04-21T13:15:19;11.55;;;4.90;;
30818;SDS011;17546;42.674;23.284;2023-04-21T13:17:45;9.07;;;4.40;;
30818;SDS011;17546;42.674;23.284;2023-04-21T13:20:11;15.20;;;4.65;;
30818;SDS011;17546;42.674;23.284;2023-04-21T13:22:36;9.48;;;4.88;;
30818;SDS011;17546;42.674;23.284;2023-04-21T13:25:02;13.38;;;4.85;;
30818;SDS011;17546;42.674;23.284;2023-04-21T13:27:28;11.07;;;4.45;;
30818;SDS011;17546;42.674;23.284;2023-04-21T13:29:55;12.07;;;4.10;;
30818;SDS011;17546;42.674;23.284;2023-04-21T13:32:21;11.98;;;4.25;;
30818;SDS011;17546;42.674;23.284;2023-04-21T13:34:46;7.50;;;3.97;;
30818;SDS011;17546;42.674;23.284;2023-04-21T13:37:12;16.33;;;4.53;;
30818;SDS011;17546;42.674;23.284;2023-04-21T13:39:40;10.30;;;4.32;;
30818;SDS011;17546;42.674;23.284;2023-04-21T13:42:05;12.60;;;4.60;;
30818;SDS011;17546;42.674;23.284;2023-04-21T13:44:31;8.38;;;4.72;;
30818;SDS011;17546;42.674;23.284;2023-04-21T13:46:57;10.05;;;4.88;;
30818;SDS011;17546;42.674;23.284;2023-04-21T13:49:22;9.93;;;4.55;;
30818;SDS011;17546;42.674;23.284;2023-04-21T13:51:48;12.48;;;4.95;;
30818;SDS011;17546;42.674;23.284;2023-04-21T13:54:13;11.25;;;4.78;;
30818;SDS011;17546;42.674;23.284;2023-04-21T13:56:39;13.57;;;4.82;;
30818;SDS011;17546;42.674;23.284;2023-04-21T13:59:04;12.05;;;4.85;;
30818;SDS011;17546;42.674;23.284;2023-04-21T14:01:30;12.45;;;4.45;;
30818;SDS011;17546;42.674;23.284;2023-04-21T14:03:55;13.88;;;5.00;;
30818;SDS011;17546;42.674;23.284;2023-04-21T14:06:21;8.27;;;4.82;;
30818;SDS011;17546;42.674;23.284;2023-04-21T14:08:46;14.18;;;5.03;;
30818;SDS011;17546;42.674;23.284;2023-04-21T14:11:12;12.25;;;4.93;;
30818;SDS011;17546;42.674;23.284;2023-04-21T14:13:37;10.63;;;5.05;;
30818;SDS011;17546;42.674;23.284;2023-04-21T14:16:02;13.35;;;5.35;;
30818;SDS011;17546;42.674;23.284;2023-04-21T14:18:28;12.63;;;4.72;;
30818;SDS011;17546;42.674;23.284;2023-04-21T14:20:53;12.40;;;5.07;;
30818;SDS011;17546;42.674;23.284;2023-04-21T14:23:19;8.90;;;4.93;;
30818;SDS011;17546;42.674;23.284;2023-04-21T14:25:44;11.40;;;4.63;;
30818;SDS011;17546;42.674;23.284;2023-04-21T14:28:10;19.85;;;5.18;;
30818;SDS011;17546;42.674;23.284;2023-04-21T14:30:35;11.13;;;5.25;;
30818;SDS011;17546;42.674;23.284;2023-04-21T14:33:01;12.25;;;5.00;;
30818;SDS011;17546;42.674;23.284;2023-04-21T14:35:27;15.05;;;5.50;;
30818;SDS011;17546;42.674;23.284;2023-04-21T14:37:53;16.90;;;5.60;;
30818;SDS011;17546;42.674;23.284;2023-04-21T14:40:18;14.85;;;5.07;;
30818;SDS011;17546;42.674;23.284;2023-04-21T14:42:44;9.23;;;5.18;;
30818;SDS011;17546;42.674;23.284;2023-04-21T14:45:10;14.75;;;5.28;;
30818;SDS011;17546;42.674;23.284;2023-04-21T14:47:36;8.85;;;4.88;;
30818;SDS011;17546;42.674;23.284;2023-04-21T14:50:02;11.77;;;4.68;;
30818;SDS011;17546;42.674;23.284;2023-04-21T14:52:29;13.15;;;5.22;;
30818;SDS011;17546;42.674;23.284;2023-04-21T14:54:55;10.07;;;5.10;;
30818;SDS011;17546;42.674;23.284;2023-04-21T14:57:21;12.90;;;5.20;;
30818;SDS011;17546;42.674;23.284;2023-04-21T14:59:47;13.27;;;5.22;;
30818;SDS011;17546;42.674;23.284;2023-04-21T15:02:13;17.42;;;5.95;;
30818;SDS011;17546;42.674;23.284;2023-04-21T15:04:39;17.10;;;6.20;;
30818;SDS011;17546;42.674;23.284;2023-04-21T15:07:04;9.50;;;5.40;;
30818;SDS011;17546;42.674;23.284;2023-04-21T15:09:30;10.88;;;6.30;;
30818;SDS011;17546;42.674;23.284;2023-04-21T15:11:56;11.77;;;6.07;;
30818;SDS011;17546;42.674;23.284;2023-04-21T15:14:21;11.57;;;5.05;;
30818;SDS011;17546;42.674;23.284;2023-04-21T15:16:47;10.45;;;5.90;;
30818;SDS011;17546;42.674;23.284;2023-04-21T15:19:12;15.75;;;7.18;;
30818;SDS011;17546;42.674;23.284;2023-04-21T15:21:38;14.40;;;6.07;;
30818;SDS011;17546;42.674;23.284;2023-04-21T15:24:03;17.15;;;6.47;;
30818;SDS011;17546;42.674;23.284;2023-04-21T15:26:29;16.63;;;6.47;;
30818;SDS011;17546;42.674;23.284;2023-04-21T15:28:55;12.27;;;6.13;;
30818;SDS011;17546;42.674;23.284;2023-04-21T15:31:21;13.30;;;6.03;;
30818;SDS011;17546;42.674;23.284;2023-04-21T15:33:47;14.98;;;5.25;;
30818;SDS011;17546;42.674;23.284;2023-04-21T15:36:12;9.10;;;5.05;;
30818;SDS011;17546;42.674;23.284;2023-04-21T15:38:37;12.20;;;5.28;;
30818;SDS011;17546;42.674;23.284;2023-04-21T15:41:03;11.05;;;4.80;;
30818;SDS011;17546;42.674;23.284;2023-04-21T15:43:28;11.15;;;4.47;;
30818;SDS011;17546;42.674;23.284;2023-04-21T15:45:54;10.10;;;4.90;;
30818;SDS011;17546;42.674;23.284;2023-04-21T15:48:19;10.38;;;5.03;;
30818;SDS011;17546;42.674;23.284;2023-04-21T15:50:46;12.27;;;4.43;;